Mineral Point, PA (15942)

1:34 PM EDT on October 02, 2014 (GMT -0400)
Jackson Twp - Swigle Mountain Road | Change Station
CLOSE
Current Station
Personal Weather Station
Location: Mineral Point, PA
Elevation: 2277 ft
Nearby Weather Stations

Elev 2277 ft 40.40 °N, 78.80 °W | Updated 3 seconds ago

Partly Cloudy
Partly Cloudy
70.5 °F
Feels Like 77 °F
N
5.8
Wind Variable Wind from SSE
Gusts 5.8 mph

Today
High -- | Low -- °F
--% Chance of Precip.
Yesterday
High -- | Low -- °F
Precip. -- in
7:12 AM 6:55 PM
First Quarter, 60% visible
Pressure 30.10 in
Visibility 10.0 miles
Clouds Scattered Clouds 3700 ft
Heat Index 77 °F
Dew Point 49 °F
Humidity 46%
Rainfall 0.00 in
Snow Depth Not available.
UV 5 out of 12
Pollen 2.00 out of 12
Air Quality Not available.
Flu Activity Not available.
METAR KJST 021654Z AUTO 15007KT 10SM SCT037 19/09 A3012 RMK AO2 SLP193 T01940089

More Conditions Fewer Conditions

Pressure 30.10 in
Visibility 10.0 miles
Clouds Scattered Clouds 3700 ft
Heat Index 77 °F
Dew Point 49 °F
Humidity 46%
Rainfall 0.00 in
Snow Depth Not available.
UV 5 out of 12
Pollen 2.00 out of 12
Air Quality Not available.
Flu Activity Not available.
METAR KJST 021654Z AUTO 15007KT 10SM SCT037 19/09 A3012 RMK AO2 SLP193 T01940089

More Conditions Fewer Conditions

10-Day Weather Forecast

Almanac

Astronomy

Oct. 02, 2014 Rise Set
Actual Time 7:12 AM EDT 6:55 PM EDT
Civil Twilight 6:45 AM EDT 7:23 PM EDT
Nautical Twilight 6:14 AM EDT 7:54 PM EDT
Astronomical Twilight 5:42 AM EDT 8:26 PM EDT
Moon 3:01 PM EDT 12:26 AM EDT
Length of Visible Light 12h 37m
Length of Day
11h 43m
Tomorrow will be 2m 38s shorter.
First Quarter, 60% of the Moon is Illuminated
Today
First Quarter
Oct 8
Full
Oct 15
Last Quarter
Oct 23
New
Oct 30
First Quarter

Today's Extremes

State Highs State Lows

Community

WunderPhotos

Upload Photos

1,758,305 photos uploaded!

Nearby

Snow Depth

Station Depth Elevation
No new snow has been reported.

Earthquake Activity

City Distance Mag. Time & Date
No recent earthquake activity has been reported nearby.
Minimum magnitude displayed is 2.5.

Coastal Water Temperatures

Place Temperature
No Stations Reporting

Nearby Weather Stations